createdAt,value
2019-05-29T00:01:19.854Z,76.72
2019-05-29T00:03:45.061Z,77.24
2019-05-29T00:06:14.336Z,77.17
2019-05-29T00:08:42.841Z,77.61
2019-05-29T00:11:12.240Z,77.65
2019-05-29T00:13:40.618Z,77.34
2019-05-29T00:16:09.006Z,77.30
2019-05-29T00:18:38.471Z,77.31
2019-05-29T00:21:06.859Z,76.89
2019-05-29T00:23:35.249Z,77.30
2019-05-29T00:26:03.703Z,77.42
2019-05-29T00:28:32.090Z,77.38
2019-05-29T00:31:00.476Z,77.57
2019-05-29T00:33:28.868Z,77.48
2019-05-29T00:35:57.250Z,77.43
2019-05-29T00:38:25.672Z,77.48
2019-05-29T00:40:54.059Z,77.19
2019-05-29T00:43:22.461Z,76.87
2019-05-29T00:45:50.924Z,76.94
2019-05-29T00:48:19.314Z,76.84
2019-05-29T00:50:47.803Z,77.04
2019-05-29T00:53:16.443Z,76.27
2019-05-29T00:55:44.833Z,76.65
2019-05-29T00:58:13.228Z,76.71
2019-05-29T01:00:41.642Z,76.50
2019-05-29T01:03:10.025Z,77.08
2019-05-29T01:05:38.423Z,77.09
2019-05-29T01:08:06.800Z,77.12
2019-05-29T01:10:35.433Z,77.12
2019-05-29T01:13:03.897Z,77.13
2019-05-29T01:15:32.287Z,76.89
2019-05-29T01:18:00.676Z,77.13
2019-05-29T01:20:29.061Z,76.93
2019-05-29T01:22:57.522Z,76.88
2019-05-29T01:25:25.972Z,77.08
2019-05-29T01:27:54.364Z,76.76
2019-05-29T01:30:23.431Z,76.59
2019-05-29T01:32:51.880Z,76.69
2019-05-29T01:35:20.352Z,76.08
2019-05-29T01:37:48.736Z,76.48
2019-05-29T01:40:23.123Z,76.54
2019-05-29T01:42:49.882Z,77.08
2019-05-29T01:45:17.568Z,77.51
2019-05-29T01:47:45.957Z,77.10
2019-05-29T01:50:15.556Z,77.69
2019-05-29T01:52:44.016Z,77.59
2019-05-29T01:55:12.506Z,77.24
2019-05-29T01:57:40.915Z,77.71
2019-05-29T02:00:10.101Z,77.08
2019-05-29T02:02:38.590Z,77.41
2019-05-29T02:05:07.315Z,77.21
2019-05-29T02:07:35.822Z,76.82
2019-05-29T02:10:06.728Z,76.82
2019-05-29T02:12:35.156Z,76.28
2019-05-29T02:15:04.994Z,76.01
2019-05-29T02:17:33.397Z,76.88
2019-05-29T02:20:01.813Z,76.76
2019-05-29T02:22:30.207Z,77.03
2019-05-29T02:24:58.620Z,77.11
2019-05-29T02:27:27.738Z,77.48
2019-05-29T02:29:56.331Z,77.10
2019-05-29T02:32:25.557Z,77.12
2019-05-29T02:34:54.070Z,77.36
2019-05-29T02:37:22.454Z,76.94
2019-05-29T02:39:50.871Z,76.62
2019-05-29T02:42:20.865Z,77.03
2019-05-29T02:44:49.504Z,77.38
2019-05-29T02:47:19.279Z,77.56
2019-05-29T02:49:47.930Z,76.78
2019-05-29T02:52:16.319Z,77.25
2019-05-29T02:54:44.711Z,76.85
2019-05-29T02:57:13.183Z,76.85
2019-05-29T02:59:41.575Z,76.98
2019-05-29T03:02:09.967Z,76.91
2019-05-29T03:04:38.374Z,77.49
2019-05-29T03:07:07.016Z,77.63
2019-05-29T03:09:35.394Z,77.97
2019-05-29T03:12:03.848Z,78.37
2019-05-29T03:14:34.333Z,78.60
2019-05-29T03:17:02.353Z,78.48
2019-05-29T03:19:32.370Z,78.17
2019-05-29T03:22:00.985Z,78.65
2019-05-29T03:24:30.818Z,78.69
2019-05-29T03:26:59.677Z,79.17
2019-05-29T03:29:29.654Z,78.93
2019-05-29T03:31:58.398Z,77.93
2019-05-29T03:34:31.064Z,77.61
2019-05-29T03:36:57.040Z,77.85
2019-05-29T03:39:26.397Z,77.12
2019-05-29T03:41:54.843Z,76.99
2019-05-29T03:44:23.249Z,77.24
2019-05-29T03:46:51.647Z,77.04
2019-05-29T03:49:20.032Z,77.39
2019-05-29T03:51:48.428Z,76.51
2019-05-29T03:54:16.896Z,76.77
2019-05-29T03:56:45.344Z,77.11
2019-05-29T03:59:13.760Z,77.40
2019-05-29T04:01:42.139Z,77.27
2019-05-29T04:04:10.526Z,76.85
2019-05-29T04:06:38.908Z,76.56
2019-05-29T04:09:07.369Z,76.36
2019-05-29T04:11:37.921Z,76.61
2019-05-29T04:14:06.721Z,77.66
2019-05-29T04:16:54.008Z,77.23
2019-05-29T04:19:06.538Z,76.32
2019-05-29T04:21:38.436Z,76.56
2019-05-29T04:24:06.972Z,76.01
2019-05-29T04:26:38.443Z,76.29
2019-05-29T04:29:06.940Z,76.14
2019-05-29T04:31:36.526Z,75.94
2019-05-29T04:34:05.448Z,76.22
2019-05-29T04:36:34.867Z,76.44
2019-05-29T04:39:04.907Z,76.38
2019-05-29T04:41:34.657Z,76.27
2019-05-29T04:44:03.149Z,76.32
2019-05-29T04:46:31.770Z,76.03
2019-05-29T04:49:00.195Z,76.17
2019-05-29T04:51:29.079Z,76.55
2019-05-29T04:53:57.609Z,76.54
2019-05-29T04:56:25.998Z,76.33
2019-05-29T04:58:54.413Z,75.81
2019-05-29T05:01:22.821Z,75.76
2019-05-29T05:03:51.272Z,75.89
2019-05-29T05:06:19.758Z,75.86
2019-05-29T05:08:48.279Z,76.00
2019-05-29T05:11:17.015Z,75.89
2019-05-29T05:13:46.089Z,76.05
2019-05-29T05:16:14.550Z,75.98
2019-05-29T05:18:42.956Z,76.46
2019-05-29T05:21:11.418Z,75.44
2019-05-29T05:23:40.509Z,75.81
2019-05-29T05:26:09.212Z,75.95
2019-05-29T05:28:38.614Z,76.49
2019-05-29T05:31:06.988Z,76.55
2019-05-29T05:33:36.632Z,76.50
2019-05-29T05:36:05.255Z,76.86
2019-05-29T05:38:34.661Z,77.05
2019-05-29T05:41:03.228Z,76.84
2019-05-29T05:43:32.820Z,76.70
2019-05-29T05:46:01.441Z,76.09
2019-05-29T05:48:30.892Z,75.44
2019-05-29T05:50:59.370Z,75.65
2019-05-29T05:53:27.909Z,76.42
2019-05-29T05:55:56.326Z,76.93
2019-05-29T05:58:24.730Z,75.53
2019-05-29T06:00:53.121Z,75.29
2019-05-29T06:03:21.581Z,75.39
2019-05-29T06:05:50.016Z,74.71
2019-05-29T06:08:18.512Z,74.96
2019-05-29T06:10:46.927Z,76.11
2019-05-29T06:13:15.330Z,76.83
2019-05-29T06:15:43.840Z,78.49
2019-05-29T06:18:21.109Z,78.80
2019-05-29T06:20:43.229Z,79.47
2019-05-29T06:23:11.670Z,80.48
2019-05-29T06:25:40.773Z,80.33
2019-05-29T06:28:10.315Z,79.97
2019-05-29T06:30:40.686Z,79.31
2019-05-29T06:33:08.899Z,80.41
2019-05-29T06:35:37.625Z,78.61
2019-05-29T06:38:06.101Z,78.95
2019-05-29T06:40:38.321Z,77.43
2019-05-29T06:43:11.256Z,78.47
2019-05-29T06:45:38.372Z,79.06
2019-05-29T06:48:08.697Z,78.17
2019-05-29T06:50:37.481Z,78.27
2019-05-29T06:53:05.949Z,79.10
2019-05-29T06:55:35.667Z,76.86
2019-05-29T06:58:04.349Z,77.65
2019-05-29T07:00:35.518Z,76.90
2019-05-29T07:03:02.958Z,76.04
2019-05-29T07:05:31.386Z,77.11
2019-05-29T07:08:13.313Z,77.39
2019-05-29T07:10:29.976Z,76.27
2019-05-29T07:12:58.374Z,76.11
2019-05-29T07:15:26.804Z,75.88
2019-05-29T07:17:55.189Z,76.12
2019-05-29T07:20:23.645Z,75.50
2019-05-29T07:22:52.061Z,75.69
2019-05-29T07:25:20.430Z,76.29
2019-05-29T07:27:48.825Z,76.10
2019-05-29T07:30:18.758Z,75.35
2019-05-29T07:32:56.654Z,75.42
2019-05-29T07:35:17.340Z,76.02
2019-05-29T07:37:46.029Z,75.90
2019-05-29T07:40:14.641Z,74.18
2019-05-29T07:42:49.751Z,74.49
2019-05-29T07:45:13.869Z,73.14
2019-05-29T07:47:42.745Z,73.09
2019-05-29T07:50:11.680Z,73.92
2019-05-29T07:52:40.855Z,73.60
2019-05-29T07:55:09.949Z,73.87
2019-05-29T07:57:38.860Z,73.10
2019-05-29T08:00:08.459Z,73.28
2019-05-29T08:02:36.855Z,74.00
2019-05-29T08:05:06.708Z,73.48
2019-05-29T08:07:35.101Z,73.28
2019-05-29T08:10:05.473Z,73.19
2019-05-29T08:12:33.873Z,73.30
2019-05-29T08:15:02.344Z,73.35
2019-05-29T08:17:30.729Z,73.61
2019-05-29T08:20:06.568Z,73.24
2019-05-29T08:22:34.120Z,72.12
2019-05-29T08:24:59.453Z,72.33
2019-05-29T08:27:27.845Z,72.42
2019-05-29T08:29:56.316Z,72.00
2019-05-29T08:32:24.757Z,71.63
2019-05-29T08:34:53.124Z,71.26
2019-05-29T08:37:21.516Z,71.36
2019-05-29T08:39:51.580Z,71.69
2019-05-29T08:42:23.304Z,71.89
2019-05-29T08:44:50.258Z,72.45
2019-05-29T08:47:18.926Z,71.53
2019-05-29T08:49:50.874Z,72.09
2019-05-29T08:52:17.504Z,71.42
2019-05-29T08:54:46.067Z,71.77
2019-05-29T08:57:14.412Z,71.61
2019-05-29T08:59:44.328Z,71.25
2019-05-29T09:02:12.806Z,70.87
2019-05-29T09:04:42.916Z,71.13
2019-05-29T09:07:11.349Z,71.26
2019-05-29T09:09:39.737Z,71.24
2019-05-29T09:12:08.118Z,70.99
2019-05-29T09:14:36.523Z,70.67
2019-05-29T09:17:04.965Z,70.08
2019-05-29T09:19:33.324Z,69.75
2019-05-29T09:22:01.711Z,69.74
2019-05-29T09:24:30.105Z,69.84
2019-05-29T09:26:58.497Z,69.60
2019-05-29T09:29:26.876Z,70.01
2019-05-29T09:31:55.265Z,69.51
2019-05-29T09:34:24.373Z,68.88
2019-05-29T09:36:55.759Z,67.51
2019-05-29T09:39:23.040Z,66.20
2019-05-29T09:41:51.437Z,65.81
2019-05-29T09:44:36.089Z,65.54
2019-05-29T09:46:49.932Z,64.70
2019-05-29T09:49:18.558Z,64.71
2019-05-29T09:51:48.484Z,64.47
2019-05-29T09:54:16.919Z,64.38
2019-05-29T09:56:45.335Z,64.46
2019-05-29T09:59:13.723Z,63.80
2019-05-29T10:01:42.102Z,63.61
2019-05-29T10:04:10.494Z,62.87
2019-05-29T10:06:38.867Z,62.48
2019-05-29T10:09:09.197Z,62.80
2019-05-29T10:11:37.911Z,62.34
2019-05-29T10:14:06.558Z,62.51
2019-05-29T10:16:34.954Z,62.26
2019-05-29T10:19:03.838Z,62.50
2019-05-29T10:21:41.533Z,62.52
2019-05-29T10:24:04.134Z,62.41
2019-05-29T10:26:32.760Z,62.36
2019-05-29T10:29:08.326Z,61.76
2019-05-29T10:31:31.240Z,62.31
2019-05-29T10:33:59.704Z,62.85
2019-05-29T10:36:28.290Z,62.35
2019-05-29T10:38:56.622Z,62.45
2019-05-29T10:41:25.008Z,62.22
2019-05-29T10:43:53.462Z,61.68
2019-05-29T10:46:21.783Z,60.74
2019-05-29T10:48:52.838Z,61.10
2019-05-29T10:51:20.359Z,61.17
2019-05-29T10:53:50.355Z,60.63
2019-05-29T10:56:21.189Z,60.91
2019-05-29T10:58:55.725Z,61.10
2019-05-29T11:01:19.087Z,61.23
2019-05-29T11:03:47.458Z,61.43
2019-05-29T11:06:15.868Z,61.79
2019-05-29T11:08:44.250Z,61.95
2019-05-29T11:11:12.639Z,62.03
2019-05-29T11:13:41.044Z,62.33
2019-05-29T11:16:09.428Z,63.94
2019-05-29T11:18:37.811Z,63.78
2019-05-29T11:21:06.269Z,63.64
2019-05-29T11:23:34.658Z,63.21
2019-05-29T11:26:03.042Z,63.20
2019-05-29T11:28:31.430Z,63.50
2019-05-29T11:31:06.128Z,63.17
2019-05-29T11:33:29.934Z,62.82
2019-05-29T11:36:10.050Z,62.62
2019-05-29T11:38:28.523Z,62.18
2019-05-29T11:41:19.885Z,61.69
2019-05-29T11:43:27.199Z,62.72
2019-05-29T11:45:55.582Z,63.31
2019-05-29T11:48:23.972Z,62.69
2019-05-29T11:50:52.349Z,62.25
2019-05-29T11:53:20.736Z,62.04
2019-05-29T11:55:49.115Z,62.36
2019-05-29T11:58:30.619Z,62.07
2019-05-29T12:00:47.688Z,61.99
2019-05-29T12:03:16.078Z,62.11
2019-05-29T12:05:44.488Z,62.37
2019-05-29T12:08:12.885Z,62.65
2019-05-29T12:10:41.294Z,62.78
2019-05-29T12:13:09.742Z,63.24
2019-05-29T12:15:38.127Z,63.02
2019-05-29T12:18:23.045Z,62.86
2019-05-29T12:20:37.002Z,62.47
2019-05-29T12:23:23.779Z,61.80
2019-05-29T12:25:35.547Z,62.12
2019-05-29T12:28:04.308Z,62.76
2019-05-29T12:30:34.337Z,63.02
2019-05-29T12:33:03.260Z,62.62
2019-05-29T12:35:31.673Z,61.98
2019-05-29T12:38:01.394Z,61.73
2019-05-29T12:40:29.834Z,61.61
2019-05-29T12:42:59.998Z,61.01
2019-05-29T12:45:28.327Z,60.86
2019-05-29T12:47:58.195Z,60.78
2019-05-29T12:50:27.118Z,61.40
2019-05-29T12:52:55.775Z,61.50
2019-05-29T12:55:24.266Z,61.56
2019-05-29T12:57:53.840Z,62.15
2019-05-29T13:00:22.339Z,62.46
2019-05-29T13:02:50.730Z,62.85
2019-05-29T13:05:20.879Z,63.25
2019-05-29T13:07:49.544Z,63.20
2019-05-29T13:10:29.875Z,62.67
2019-05-29T13:12:48.931Z,62.24
2019-05-29T13:15:18.027Z,60.88
2019-05-29T13:17:46.411Z,60.39
2019-05-29T13:20:21.453Z,60.60
2019-05-29T13:22:45.459Z,60.69
2019-05-29T13:25:14.279Z,60.08
2019-05-29T13:27:42.752Z,59.83
2019-05-29T13:30:13.475Z,60.14
2019-05-29T13:32:42.286Z,60.22
2019-05-29T13:35:12.647Z,60.91
2019-05-29T13:37:41.033Z,60.79
2019-05-29T13:40:09.756Z,61.13
2019-05-29T13:42:38.207Z,60.78
2019-05-29T13:45:16.893Z,60.45
2019-05-29T13:47:37.739Z,60.51
2019-05-29T13:50:11.745Z,60.32
2019-05-29T13:52:37.278Z,60.05
2019-05-29T13:55:07.830Z,59.53
2019-05-29T13:57:39.539Z,59.56
2019-05-29T14:00:30.203Z,60.01
2019-05-29T14:02:38.930Z,60.20
2019-05-29T14:05:08.771Z,60.11
2019-05-29T14:07:37.395Z,60.07
2019-05-29T14:10:07.768Z,59.88
2019-05-29T14:12:37.641Z,60.01
2019-05-29T14:15:09.991Z,58.92
2019-05-29T14:17:38.390Z,57.70
2019-05-29T14:20:09.115Z,58.55
2019-05-29T14:22:37.577Z,59.22
2019-05-29T14:25:07.523Z,60.17
2019-05-29T14:27:35.960Z,60.26
2019-05-29T14:30:08.455Z,60.77
2019-05-29T14:32:37.519Z,60.21
2019-05-29T14:35:07.769Z,60.57
2019-05-29T14:37:37.049Z,60.61
2019-05-29T14:40:07.757Z,60.86
2019-05-29T14:42:36.350Z,60.96
2019-05-29T14:45:08.520Z,61.18
2019-05-29T14:47:36.923Z,60.84
2019-05-29T14:50:06.827Z,60.83
2019-05-29T14:52:35.203Z,60.52
2019-05-29T14:55:04.724Z,60.78
2019-05-29T14:57:33.127Z,60.90
2019-05-29T15:00:06.572Z,60.78
2019-05-29T15:02:31.763Z,61.36
2019-05-29T15:05:00.150Z,61.52
2019-05-29T15:07:28.529Z,61.34
2019-05-29T15:09:56.914Z,61.14
2019-05-29T15:12:25.310Z,61.04
2019-05-29T15:14:53.687Z,61.02
2019-05-29T15:17:22.076Z,60.86
2019-05-29T15:19:50.483Z,60.97
2019-05-29T15:22:18.878Z,60.97
2019-05-29T15:25:01.513Z,61.32
2019-05-29T15:27:17.378Z,60.91
2019-05-29T15:29:45.765Z,61.14
2019-05-29T15:32:14.610Z,60.69
2019-05-29T15:34:43.006Z,60.43
2019-05-29T15:37:13.679Z,60.21
2019-05-29T15:39:41.513Z,60.06
2019-05-29T15:42:10.892Z,60.11
2019-05-29T15:44:39.265Z,59.87
2019-05-29T15:47:08.758Z,60.33
2019-05-29T15:49:37.243Z,60.31
2019-05-29T15:52:06.960Z,60.37
2019-05-29T15:54:35.412Z,59.89
2019-05-29T15:57:03.791Z,59.61
2019-05-29T15:59:32.178Z,59.98
2019-05-29T16:02:00.568Z,60.10
2019-05-29T16:04:29.056Z,60.15
2019-05-29T16:06:57.459Z,60.08
2019-05-29T16:09:25.874Z,59.24
2019-05-29T16:11:54.273Z,60.37
2019-05-29T16:14:22.655Z,59.45
2019-05-29T16:16:51.044Z,59.15
2019-05-29T16:19:19.424Z,58.93
2019-05-29T16:21:47.810Z,59.19
2019-05-29T16:24:16.803Z,58.78
2019-05-29T16:26:45.230Z,58.79
2019-05-29T16:29:15.999Z,58.87
2019-05-29T16:31:43.993Z,58.67
2019-05-29T16:34:12.435Z,58.32
2019-05-29T16:36:40.825Z,58.42
2019-05-29T16:39:09.386Z,58.42
2019-05-29T16:41:37.941Z,57.74
2019-05-29T16:44:06.503Z,57.99
2019-05-29T16:46:34.888Z,57.74
2019-05-29T16:49:03.283Z,57.37
2019-05-29T16:51:31.732Z,57.34
2019-05-29T16:54:00.134Z,57.29
2019-05-29T16:56:28.565Z,57.22
2019-05-29T16:58:56.968Z,57.26
2019-05-29T17:01:25.371Z,57.05
2019-05-29T17:03:53.762Z,56.82
2019-05-29T17:06:22.498Z,57.00
2019-05-29T17:08:51.088Z,56.93
2019-05-29T17:11:20.374Z,56.73
2019-05-29T17:13:48.792Z,57.10
2019-05-29T17:16:18.460Z,57.15
2019-05-29T17:18:47.092Z,57.06
2019-05-29T17:21:16.508Z,56.98
2019-05-29T17:23:44.882Z,56.84
2019-05-29T17:26:14.560Z,57.40
2019-05-29T17:28:43.085Z,57.90
2019-05-29T17:31:11.515Z,58.14
2019-05-29T17:33:39.912Z,57.63
2019-05-29T17:36:08.407Z,57.91
2019-05-29T17:38:36.741Z,57.75
2019-05-29T17:41:05.311Z,57.64
2019-05-29T17:43:33.707Z,57.75
2019-05-29T17:46:02.117Z,57.74
2019-05-29T17:48:30.513Z,57.38
2019-05-29T17:50:58.926Z,57.70
2019-05-29T17:53:27.423Z,57.93
2019-05-29T17:55:55.817Z,57.71
2019-05-29T17:58:25.021Z,57.62
2019-05-29T18:00:54.479Z,57.42
2019-05-29T18:03:22.879Z,57.40
2019-05-29T18:05:51.284Z,57.17
2019-05-29T18:08:20.711Z,57.40
2019-05-29T18:10:49.202Z,57.05
2019-05-29T18:13:17.588Z,57.34
2019-05-29T18:15:46.029Z,57.44
2019-05-29T18:18:14.417Z,57.58
2019-05-29T18:20:42.822Z,57.56
2019-05-29T18:23:11.207Z,57.45
2019-05-29T18:25:39.649Z,57.69
2019-05-29T18:28:08.051Z,58.02
2019-05-29T18:30:36.519Z,58.32
2019-05-29T18:33:05.050Z,57.98
2019-05-29T18:35:33.468Z,57.76
2019-05-29T18:38:01.890Z,57.93
2019-05-29T18:40:30.299Z,57.44
2019-05-29T18:42:58.701Z,57.80
2019-05-29T18:45:27.965Z,57.61
2019-05-29T18:47:57.248Z,57.53
2019-05-29T18:50:25.734Z,57.58
2019-05-29T18:52:54.107Z,57.77
2019-05-29T18:55:22.861Z,57.89
2019-05-29T18:57:51.292Z,57.85
2019-05-29T19:00:23.326Z,58.17
2019-05-29T19:02:51.798Z,58.22
2019-05-29T19:05:21.423Z,58.51
2019-05-29T19:07:49.861Z,58.43
2019-05-29T19:10:19.707Z,58.37
2019-05-29T19:12:48.097Z,57.61
2019-05-29T19:15:17.765Z,57.60
2019-05-29T19:17:46.166Z,57.81
2019-05-29T19:20:15.160Z,57.89
2019-05-29T19:22:43.546Z,57.84
2019-05-29T19:25:12.162Z,58.16
2019-05-29T19:27:42.250Z,58.24
2019-05-29T19:30:11.497Z,58.18
2019-05-29T19:32:39.878Z,58.02
2019-05-29T19:35:09.226Z,57.91
2019-05-29T19:37:37.604Z,58.14
2019-05-29T19:40:06.736Z,58.08
2019-05-29T19:42:35.124Z,58.26
2019-05-29T19:45:05.646Z,58.42
2019-05-29T19:47:34.929Z,58.73
2019-05-29T19:50:04.672Z,59.09
2019-05-29T19:52:33.329Z,59.34
2019-05-29T19:55:01.798Z,59.85
2019-05-29T19:57:46.526Z,60.16
2019-05-29T20:00:00.358Z,60.46
2019-05-29T20:02:30.473Z,60.52
2019-05-29T20:04:58.828Z,60.94
2019-05-29T20:07:27.224Z,61.03
2019-05-29T20:09:55.608Z,61.12
2019-05-29T20:12:23.995Z,61.23
2019-05-29T20:14:52.379Z,61.58
2019-05-29T20:17:20.768Z,61.71
2019-05-29T20:19:49.150Z,61.82
2019-05-29T20:22:17.538Z,61.88
2019-05-29T20:24:45.927Z,61.62
2019-05-29T20:27:14.306Z,61.69
2019-05-29T20:29:42.761Z,61.63
2019-05-29T20:32:11.151Z,61.75
2019-05-29T20:34:40.470Z,61.97
2019-05-29T20:37:08.862Z,62.65
2019-05-29T20:39:38.448Z,62.85
2019-05-29T20:42:06.943Z,63.06
2019-05-29T20:44:41.288Z,63.23
2019-05-29T20:47:09.673Z,63.54
2019-05-29T20:49:38.120Z,63.90
2019-05-29T20:52:06.537Z,64.39
2019-05-29T20:54:35.595Z,64.55
2019-05-29T20:57:05.689Z,65.22
2019-05-29T20:59:34.092Z,65.26
2019-05-29T21:02:02.494Z,65.31
2019-05-29T21:04:32.917Z,65.19
2019-05-29T21:07:01.016Z,65.17
2019-05-29T21:09:29.428Z,65.11
2019-05-29T21:11:57.776Z,65.45
2019-05-29T21:14:26.174Z,65.40
2019-05-29T21:16:54.554Z,65.58
2019-05-29T21:19:22.944Z,66.19
2019-05-29T21:21:51.324Z,65.72
2019-05-29T21:24:20.601Z,66.08
2019-05-29T21:26:48.984Z,66.09
2019-05-29T21:29:17.369Z,65.98
2019-05-29T21:31:45.836Z,65.82
2019-05-29T21:34:14.232Z,65.92
2019-05-29T21:36:42.690Z,65.87
2019-05-29T21:39:11.143Z,66.02
2019-05-29T21:41:40.416Z,65.94
2019-05-29T21:44:08.786Z,66.01
2019-05-29T21:46:37.185Z,66.13
2019-05-29T21:49:05.665Z,66.04
2019-05-29T21:51:34.045Z,65.99
2019-05-29T21:54:02.440Z,65.76
2019-05-29T21:56:30.826Z,65.53
2019-05-29T21:59:03.900Z,65.78
2019-05-29T22:01:29.451Z,65.81
2019-05-29T22:03:57.903Z,65.75
2019-05-29T22:06:26.423Z,65.60
2019-05-29T22:08:54.876Z,65.46
2019-05-29T22:11:23.259Z,65.52
2019-05-29T22:13:52.364Z,65.54
2019-05-29T22:16:20.705Z,65.38
2019-05-29T22:18:49.157Z,65.45
2019-05-29T22:21:17.544Z,65.37
2019-05-29T22:23:45.926Z,65.25
2019-05-29T22:26:14.307Z,65.16
2019-05-29T22:28:42.701Z,65.26
2019-05-29T22:31:11.154Z,65.29
2019-05-29T22:33:39.602Z,65.49
2019-05-29T22:36:07.975Z,65.51
2019-05-29T22:38:36.372Z,65.23
2019-05-29T22:41:04.816Z,65.28
2019-05-29T22:43:33.220Z,65.42
2019-05-29T22:46:01.882Z,65.26
2019-05-29T22:48:30.254Z,65.34
2019-05-29T22:50:59.884Z,65.26
2019-05-29T22:53:28.303Z,65.43
2019-05-29T22:55:57.819Z,65.67
2019-05-29T22:58:26.246Z,65.88
2019-05-29T23:00:55.874Z,66.01
2019-05-29T23:03:24.381Z,65.84
2019-05-29T23:05:53.995Z,65.89
2019-05-29T23:08:22.626Z,66.03
2019-05-29T23:10:52.183Z,65.83
2019-05-29T23:13:20.581Z,65.89
2019-05-29T23:15:48.963Z,65.99
2019-05-29T23:18:17.341Z,65.86
2019-05-29T23:20:45.732Z,65.86
2019-05-29T23:23:14.191Z,65.67
2019-05-29T23:25:42.581Z,65.51
2019-05-29T23:28:11.027Z,65.20
2019-05-29T23:30:39.415Z,65.47
2019-05-29T23:33:07.793Z,65.29
2019-05-29T23:35:36.182Z,65.59
2019-05-29T23:38:04.564Z,65.33
2019-05-29T23:40:32.954Z,65.34
2019-05-29T23:43:01.606Z,66.02
2019-05-29T23:45:30.116Z,65.91
2019-05-29T23:47:59.624Z,65.71
2019-05-29T23:50:28.066Z,65.64
2019-05-29T23:52:57.839Z,65.21
2019-05-29T23:55:26.320Z,65.30
2019-05-29T23:57:55.665Z,65.54
